Terminal Aerodrome Forecast
Issued by NWS Cleveland, OH

Home | Current Version | Previous Version | Graphics & Text | Print | Product List | Glossary Off
Versions: 1 2 3 4 5 6 7 8 9 10 11 12 13 14 15 16 17 18

674
FTUS41 KCLE 302335
TAFCAK
TAF
KCAK 302335Z 3100/3124 VRB03KT P6SM BKN250
     FM310800 22005KT P6SM VCSH BKN040 OVC100
     FM311400 24006KT 4SM -SHRA OVC025
     FM311900 30006KT P6SM OVC035=

USA.gov is the U.S. government's official web portal to all federal, state and local government web resources and services.